Time;durP1;ratioP1;P1;durP2;ratioP2;P2;SDS_P1;SDS_P2;PMS_P1;PMS_P2;Temp;Humidity;BMP_temperature;BMP_pressure;BME280_temperature;BME280_humidity;BME280_pressure;Samples;Min_cycle;Max_cycle;Signal;HPM_P1;HPM_P2
2022/08/24 00:02:16;;;;;;;6.25;3.03;;;;;;;;;;5079485;28;20102;-77
2022/08/24 00:04:42;;;;;;;9.45;3.33;;;;;;;;;;5074452;28;20069;-77
2022/08/24 00:07:08;;;;;;;8.65;3.50;;;;;;;;;;5073116;28;20515;-77
2022/08/24 00:09:35;;;;;;;8.98;3.78;;;;;;;;;;5068004;28;20108;-77
2022/08/24 00:12:01;;;;;;;8.23;3.72;;;;;;;;;;5076739;28;20047;-77
2022/08/24 00:14:27;;;;;;;5.10;3.22;;;;;;;;;;5080691;28;20020;-77
2022/08/24 00:16:54;;;;;;;8.88;3.50;;;;;;;;;;5083641;28;20038;-77
2022/08/24 00:19:20;;;;;;;7.57;3.70;;;;;;;;;;5077109;28;20111;-77
2022/08/24 00:21:46;;;;;;;6.18;3.53;;;;;;;;;;5079767;28;20071;-78
2022/08/24 00:24:13;;;;;;;12.35;4.00;;;;;;;;;;5081347;28;20346;-77
2022/08/24 00:26:39;;;;;;;10.45;3.80;;;;;;;;;;5074438;28;20068;-77
2022/08/24 00:29:05;;;;;;;10.80;3.35;;;;;;;;;;5078674;28;20032;-77
2022/08/24 00:31:31;;;;;;;9.40;3.67;;;;;;;;;;5081776;28;20035;-77
2022/08/24 00:33:58;;;;;;;10.23;4.20;;;;;;;;;;5077726;28;20024;-77
2022/08/24 00:36:24;;;;;;;9.77;4.15;;;;;;;;;;5081259;28;20082;-77
2022/08/24 00:38:51;;;;;;;6.93;3.40;;;;;;;;;;5082301;28;20032;-77
2022/08/24 00:41:17;;;;;;;7.65;3.92;;;;;;;;;;5086287;28;20024;-77
2022/08/24 00:43:54;;;;;;;7.50;3.58;;;;;;;;;;5080677;28;20040;-77
2022/08/24 00:46:31;;;;;;;7.30;3.55;;;;;;;;;;5081053;28;20036;-77
2022/08/24 00:49:01;;;;;;;10.50;3.80;;;;;;;;;;5078040;28;20024;-77
2022/08/24 00:51:29;;;;;;;5.60;3.13;;;;;;;;;;5078445;28;20028;-77
2022/08/24 00:53:57;;;;;;;7.25;3.28;;;;;;;;;;5082584;28;20469;-77
2022/08/24 00:56:29;;;;;;;7.00;3.50;;;;;;;;;;5087690;28;20036;-77
2022/08/24 00:59:07;;;;;;;6.22;3.25;;;;;;;;;;5084248;28;20035;-77
2022/08/24 01:01:34;;;;;;;5.78;2.67;;;;;;;;;;5079541;28;20043;-77
2022/08/24 01:04:01;;;;;;;6.18;2.88;;;;;;;;;;5081820;28;20056;-77
2022/08/24 01:06:28;;;;;;;7.05;3.03;;;;;;;;;;5077466;28;20140;-77
2022/08/24 01:08:54;;;;;;;6.47;3.05;;;;;;;;;;5083123;28;20039;-77
2022/08/24 01:11:21;;;;;;;6.70;3.15;;;;;;;;;;5081351;28;20382;-77
2022/08/24 01:13:48;;;;;;;5.20;3.10;;;;;;;;;;5076837;28;20382;-77
2022/08/24 01:18:48;;;;;;;5.85;2.90;;;;;;;;;;5080222;28;20102;-77
2022/08/24 01:19:01;;;;;;;7.60;2.58;;;;;;;;;;5078373;28;20047;-77
2022/08/24 01:21:33;;;;;;;8.73;2.67;;;;;;;;;;5083332;28;20412;-77
2022/08/24 01:24:02;;;;;;;4.60;2.80;;;;;;;;;;5075660;28;20047;-77
2022/08/24 01:26:32;;;;;;;5.07;2.70;;;;;;;;;;5074427;28;20040;-77
2022/08/24 01:29:04;;;;;;;7.20;3.50;;;;;;;;;;5079624;28;20036;-77
2022/08/24 01:31:30;;;;;;;5.82;2.95;;;;;;;;;;5082353;28;20110;-77
2022/08/24 01:33:56;;;;;;;4.95;2.45;;;;;;;;;;5074069;28;20416;-77
2022/08/24 01:36:41;;;;;;;6.15;2.28;;;;;;;;;;5079886;28;20036;-77
2022/08/24 01:39:12;;;;;;;5.50;2.78;;;;;;;;;;5079446;28;20063;-77
2022/08/24 01:41:39;;;;;;;7.32;2.95;;;;;;;;;;5076732;28;20032;-77
2022/08/24 01:44:05;;;;;;;9.50;3.00;;;;;;;;;;5084375;28;20039;-77
2022/08/24 01:46:31;;;;;;;5.13;2.80;;;;;;;;;;5082033;28;20040;-77
2022/08/24 01:48:57;;;;;;;8.88;3.35;;;;;;;;;;5088205;28;20032;-77
2022/08/24 01:51:24;;;;;;;7.50;3.13;;;;;;;;;;5080586;28;20107;-77
2022/08/24 01:53:50;;;;;;;5.22;3.08;;;;;;;;;;5075603;28;20409;-77
2022/08/24 01:56:17;;;;;;;5.07;2.95;;;;;;;;;;5079011;28;20036;-77
2022/08/24 01:58:46;;;;;;;8.65;3.28;;;;;;;;;;5080739;28;20837;-76
2022/08/24 02:01:13;;;;;;;6.82;3.00;;;;;;;;;;5071452;28;20044;-77
2022/08/24 02:03:39;;;;;;;7.63;3.20;;;;;;;;;;5083016;28;20097;-77
2022/08/24 02:06:05;;;;;;;10.52;3.20;;;;;;;;;;5077763;28;20079;-77
2022/08/24 02:08:35;;;;;;;6.30;2.70;;;;;;;;;;5085925;28;20100;-77
2022/08/24 02:11:02;;;;;;;7.68;3.42;;;;;;;;;;5072793;28;20089;-77
2022/08/24 02:13:28;;;;;;;5.40;2.88;;;;;;;;;;5078796;28;20070;-77
2022/08/24 02:15:54;;;;;;;5.15;3.15;;;;;;;;;;5084605;28;20107;-77
2022/08/24 02:18:20;;;;;;;5.88;2.80;;;;;;;;;;5079848;28;20040;-78
2022/08/24 02:20:46;;;;;;;11.23;3.03;;;;;;;;;;5086320;28;20039;-78
2022/08/24 02:23:13;;;;;;;6.57;2.75;;;;;;;;;;5086113;28;20052;-77
2022/08/24 02:25:39;;;;;;;6.82;3.08;;;;;;;;;;5077585;28;20064;-78
2022/08/24 02:28:05;;;;;;;5.32;3.00;;;;;;;;;;5077094;28;20044;-77
2022/08/24 02:30:31;;;;;;;5.65;3.05;;;;;;;;;;5075242;28;20037;-77
2022/08/24 02:32:58;;;;;;;4.78;2.90;;;;;;;;;;5073062;28;20070;-77
2022/08/24 02:35:24;;;;;;;7.47;2.55;;;;;;;;;;5082475;28;20294;-78
2022/08/24 02:37:51;;;;;;;8.52;3.13;;;;;;;;;;5073603;28;20474;-78
2022/08/24 02:40:17;;;;;;;7.38;3.40;;;;;;;;;;5077359;28;20024;-77
2022/08/24 02:42:43;;;;;;;5.20;2.47;;;;;;;;;;5080794;28;20703;-77
2022/08/24 02:45:09;;;;;;;9.25;3.03;;;;;;;;;;5083857;28;20564;-77
2022/08/24 02:47:36;;;;;;;6.18;2.60;;;;;;;;;;5077062;28;20514;-77
2022/08/24 02:50:04;;;;;;;4.72;2.50;;;;;;;;;;5065198;28;20811;-77
2022/08/24 02:52:30;;;;;;;6.57;3.10;;;;;;;;;;5085220;28;20464;-77
2022/08/24 02:54:56;;;;;;;6.13;2.97;;;;;;;;;;5081095;28;20072;-77
2022/08/24 02:57:22;;;;;;;13.32;3.45;;;;;;;;;;5080898;28;20035;-77
2022/08/24 02:59:48;;;;;;;7.95;2.88;;;;;;;;;;5080596;28;20082;-78
2022/08/24 03:02:14;;;;;;;4.55;2.58;;;;;;;;;;5085154;28;20055;-77
2022/08/24 03:04:40;;;;;;;6.63;2.63;;;;;;;;;;5079736;28;20692;-77
2022/08/24 03:07:06;;;;;;;6.68;3.03;;;;;;;;;;5078921;28;20462;-77
2022/08/24 03:09:32;;;;;;;5.93;2.83;;;;;;;;;;5077490;28;20528;-77
2022/08/24 03:11:58;;;;;;;6.80;3.00;;;;;;;;;;5076096;28;20040;-77
2022/08/24 03:14:24;;;;;;;6.30;3.13;;;;;;;;;;5081747;28;20072;-77
2022/08/24 03:16:50;;;;;;;6.57;3.03;;;;;;;;;;5077479;28;20415;-77
2022/08/24 03:19:17;;;;;;;4.18;2.80;;;;;;;;;;5081086;28;20099;-77
2022/08/24 03:21:43;;;;;;;5.97;2.75;;;;;;;;;;5080172;28;20056;-77
2022/08/24 03:24:09;;;;;;;6.90;3.10;;;;;;;;;;5083107;28;20051;-77
2022/08/24 03:26:35;;;;;;;6.22;3.10;;;;;;;;;;5082596;28;20040;-77
2022/08/24 03:29:01;;;;;;;9.43;3.72;;;;;;;;;;5082516;28;20079;-77
2022/08/24 03:31:27;;;;;;;7.70;3.13;;;;;;;;;;5078444;28;20033;-77
2022/08/24 03:33:53;;;;;;;5.95;3.15;;;;;;;;;;5080102;28;20047;-77
2022/08/24 03:36:19;;;;;;;7.60;3.78;;;;;;;;;;5085771;28;20066;-78
2022/08/24 03:38:45;;;;;;;7.18;3.10;;;;;;;;;;5072796;28;20433;-77
2022/08/24 03:41:11;;;;;;;5.60;3.00;;;;;;;;;;5085485;28;20036;-77
2022/08/24 03:43:50;;;;;;;6.82;3.30;;;;;;;;;;5076379;28;20044;-77
2022/08/24 03:46:20;;;;;;;5.72;2.97;;;;;;;;;;5078559;28;20037;-77
2022/08/24 03:48:46;;;;;;;7.10;3.33;;;;;;;;;;5084460;28;20056;-77
2022/08/24 03:51:14;;;;;;;7.05;3.50;;;;;;;;;;5081345;28;20120;-77
2022/08/24 03:53:40;;;;;;;12.00;4.00;;;;;;;;;;5082784;28;20055;-77
2022/08/24 03:56:07;;;;;;;8.13;3.00;;;;;;;;;;5082181;28;20036;-77
2022/08/24 03:58:34;;;;;;;5.75;2.65;;;;;;;;;;5082729;28;20051;-77
2022/08/24 04:01:01;;;;;;;5.95;3.15;;;;;;;;;;5077144;28;20056;-77
2022/08/24 04:03:28;;;;;;;7.82;3.80;;;;;;;;;;5071596;28;20385;-77
2022/08/24 04:05:54;;;;;;;9.93;3.20;;;;;;;;;;5081692;28;20037;-77
2022/08/24 04:08:20;;;;;;;7.28;3.50;;;;;;;;;;5078209;28;20089;-77
2022/08/24 04:10:47;;;;;;;7.72;4.28;;;;;;;;;;5085430;28;20393;-77
2022/08/24 04:13:14;;;;;;;5.95;3.42;;;;;;;;;;5082366;28;20517;-77
2022/08/24 04:15:41;;;;;;;6.95;3.72;;;;;;;;;;5080867;28;20040;-77
2022/08/24 04:18:07;;;;;;;6.75;3.47;;;;;;;;;;5077630;28;20035;-77
2022/08/24 04:20:42;;;;;;;7.78;4.10;;;;;;;;;;5081300;28;20056;-77
2022/08/24 04:23:09;;;;;;;6.30;3.50;;;;;;;;;;5079995;28;20037;-77
2022/08/24 04:25:41;;;;;;;6.63;3.78;;;;;;;;;;5079861;28;20036;-77
2022/08/24 04:28:07;;;;;;;7.10;3.72;;;;;;;;;;5077726;28;20115;-77
2022/08/24 04:30:33;;;;;;;7.90;3.70;;;;;;;;;;5085909;28;20028;-77
2022/08/24 04:32:59;;;;;;;6.82;3.30;;;;;;;;;;5088960;28;20032;-77
2022/08/24 04:35:25;;;;;;;8.98;3.50;;;;;;;;;;5088504;28;20032;-77
2022/08/24 04:37:51;;;;;;;5.47;3.10;;;;;;;;;;5084344;28;20504;-77
2022/08/24 04:40:17;;;;;;;9.68;3.83;;;;;;;;;;5087683;28;20098;-77
2022/08/24 04:42:43;;;;;;;7.97;3.40;;;;;;;;;;5081981;28;20032;-77
2022/08/24 04:45:09;;;;;;;6.82;3.47;;;;;;;;;;5084455;28;20039;-77
2022/08/24 04:47:35;;;;;;;8.30;3.80;;;;;;;;;;5077430;28;20039;-77
2022/08/24 04:50:01;;;;;;;7.07;3.17;;;;;;;;;;5078609;28;20385;-77
2022/08/24 04:52:28;;;;;;;9.82;3.65;;;;;;;;;;5077128;28;20056;-77
2022/08/24 04:54:54;;;;;;;8.05;3.58;;;;;;;;;;5080604;28;20043;-77
2022/08/24 04:57:20;;;;;;;7.78;3.53;;;;;;;;;;5081474;28;20024;-77
2022/08/24 04:59:46;;;;;;;6.70;3.47;;;;;;;;;;5081832;28;20473;-77
2022/08/24 05:02:12;;;;;;;8.13;3.70;;;;;;;;;;5084888;28;20036;-77
2022/08/24 05:04:38;;;;;;;7.95;3.33;;;;;;;;;;5079507;28;20036;-77
2022/08/24 05:07:05;;;;;;;6.45;3.50;;;;;;;;;;5084560;28;20429;-77
2022/08/24 05:09:31;;;;;;;7.97;3.55;;;;;;;;;;5073548;28;20052;-77
2022/08/24 05:11:57;;;;;;;9.18;3.50;;;;;;;;;;5082669;28;20060;-77
2022/08/24 05:14:23;;;;;;;6.78;3.33;;;;;;;;;;5084608;28;20079;-77
2022/08/24 05:16:49;;;;;;;6.65;3.40;;;;;;;;;;5083661;28;20500;-77
2022/08/24 05:19:15;;;;;;;6.03;3.28;;;;;;;;;;5084026;28;20111;-77
2022/08/24 05:21:43;;;;;;;6.40;3.42;;;;;;;;;;5074938;28;20112;-77
2022/08/24 05:24:09;;;;;;;10.98;4.13;;;;;;;;;;5076391;28;20029;-77
2022/08/24 05:26:35;;;;;;;7.68;3.33;;;;;;;;;;5079871;28;20392;-77
2022/08/24 05:29:02;;;;;;;8.60;3.47;;;;;;;;;;5078245;28;20365;-77
2022/08/24 05:31:30;;;;;;;14.25;4.55;;;;;;;;;;5086340;28;20028;-77
2022/08/24 05:33:56;;;;;;;13.05;4.20;;;;;;;;;;5077840;28;20057;-77
2022/08/24 05:36:24;;;;;;;8.68;4.03;;;;;;;;;;5087044;28;20579;-77
2022/08/24 05:38:50;;;;;;;8.95;3.80;;;;;;;;;;5085107;28;20036;-77
2022/08/24 05:41:17;;;;;;;8.35;3.42;;;;;;;;;;5077004;28;20485;-77
2022/08/24 05:43:43;;;;;;;8.07;3.65;;;;;;;;;;5073161;28;20041;-77
2022/08/24 05:46:10;;;;;;;11.65;4.10;;;;;;;;;;5078677;28;20032;-77
2022/08/24 05:48:37;;;;;;;8.73;3.70;;;;;;;;;;5086637;28;20630;-77
2022/08/24 05:51:04;;;;;;;11.38;3.70;;;;;;;;;;5082962;28;20032;-77
2022/08/24 05:53:30;;;;;;;7.65;4.40;;;;;;;;;;5075350;28;20031;-78
2022/08/24 05:55:56;;;;;;;9.27;4.28;;;;;;;;;;5087198;28;20075;-78
2022/08/24 05:58:22;;;;;;;8.38;4.03;;;;;;;;;;5084498;28;20070;-77
2022/08/24 06:00:49;;;;;;;9.70;4.45;;;;;;;;;;5075966;28;20102;-78
2022/08/24 06:03:15;;;;;;;7.72;3.63;;;;;;;;;;5082086;28;20412;-78
2022/08/24 06:05:42;;;;;;;11.35;4.30;;;;;;;;;;5080943;28;20070;-78
2022/08/24 06:08:09;;;;;;;8.73;3.95;;;;;;;;;;5080331;28;20470;-78
2022/08/24 06:10:49;;;;;;;7.07;3.67;;;;;;;;;;5082869;28;20111;-78
2022/08/24 06:13:15;;;;;;;6.97;3.00;;;;;;;;;;5081175;28;20040;-78
2022/08/24 06:15:42;;;;;;;9.23;3.60;;;;;;;;;;5083360;28;20382;-77
2022/08/24 06:18:08;;;;;;;11.90;4.25;;;;;;;;;;5078839;28;20063;-77
2022/08/24 06:20:39;;;;;;;9.50;4.38;;;;;;;;;;5079703;28;20039;-78
2022/08/24 06:23:05;;;;;;;7.15;4.13;;;;;;;;;;5077308;28;20501;-77
2022/08/24 06:28:16;;;;;;;8.27;4.18;;;;;;;;;;5075103;28;20078;-77
2022/08/24 06:30:42;;;;;;;9.43;3.70;;;;;;;;;;5080620;28;20137;-78
2022/08/24 06:33:08;;;;;;;6.57;3.33;;;;;;;;;;5079521;28;20795;-78
2022/08/24 06:35:34;;;;;;;9.98;3.67;;;;;;;;;;5076936;28;20158;-77
2022/08/24 06:38:01;;;;;;;7.82;3.70;;;;;;;;;;5055796;28;20040;-78
2022/08/24 06:40:27;;;;;;;7.22;3.85;;;;;;;;;;5080765;28;20028;-77
2022/08/24 06:42:53;;;;;;;6.93;3.30;;;;;;;;;;5081776;28;20036;-78
2022/08/24 06:45:21;;;;;;;7.22;3.38;;;;;;;;;;5078101;28;20695;-78
2022/08/24 06:47:47;;;;;;;6.40;3.15;;;;;;;;;;5078823;28;20028;-77
2022/08/24 06:50:13;;;;;;;6.78;3.13;;;;;;;;;;5082160;28;20025;-77
2022/08/24 06:52:39;;;;;;;7.80;3.28;;;;;;;;;;5080788;28;20581;-77
2022/08/24 06:55:05;;;;;;;11.98;3.42;;;;;;;;;;5086428;28;20028;-78
2022/08/24 06:57:31;;;;;;;10.55;3.10;;;;;;;;;;5076294;28;20033;-78
2022/08/24 06:59:57;;;;;;;10.60;3.53;;;;;;;;;;5080873;28;20420;-77
2022/08/24 07:02:24;;;;;;;11.35;3.70;;;;;;;;;;5086088;28;20559;-77
2022/08/24 07:04:50;;;;;;;6.13;3.03;;;;;;;;;;5080569;28;20039;-78
2022/08/24 07:07:16;;;;;;;6.82;2.95;;;;;;;;;;5077408;28;20040;-78
2022/08/24 07:09:42;;;;;;;12.32;4.35;;;;;;;;;;5079045;28;20052;-78
2022/08/24 07:12:08;;;;;;;10.65;4.03;;;;;;;;;;5081748;28;20102;-77
2022/08/24 07:14:35;;;;;;;6.93;3.40;;;;;;;;;;5076827;28;20032;-77
2022/08/24 07:17:01;;;;;;;7.15;3.03;;;;;;;;;;5077509;28;20473;-77
2022/08/24 07:19:27;;;;;;;7.60;3.05;;;;;;;;;;5075318;28;20030;-77
2022/08/24 07:21:57;;;;;;;8.32;2.88;;;;;;;;;;5079086;28;20032;-77
2022/08/24 07:24:23;;;;;;;7.50;3.03;;;;;;;;;;5083275;28;20396;-77
2022/08/24 07:26:49;;;;;;;6.63;3.05;;;;;;;;;;5082718;28;20052;-77
2022/08/24 07:29:15;;;;;;;9.20;3.20;;;;;;;;;;5074793;28;20470;-77
2022/08/24 07:31:42;;;;;;;6.68;3.20;;;;;;;;;;5074660;28;20043;-76
2022/08/24 07:34:08;;;;;;;8.10;3.35;;;;;;;;;;5077459;28;20038;-76
2022/08/24 07:36:35;;;;;;;7.50;3.10;;;;;;;;;;5075896;28;20688;-77
2022/08/24 07:39:02;;;;;;;10.57;3.80;;;;;;;;;;5075517;28;20127;-77
2022/08/24 07:41:28;;;;;;;7.13;3.60;;;;;;;;;;5074038;28;20111;-77
2022/08/24 07:43:55;;;;;;;8.95;4.00;;;;;;;;;;5077877;28;20032;-77
2022/08/24 07:46:21;;;;;;;9.43;3.58;;;;;;;;;;5084205;28;20028;-77
2022/08/24 07:48:47;;;;;;;8.43;3.55;;;;;;;;;;5086416;28;20052;-77
2022/08/24 07:51:14;;;;;;;8.02;3.50;;;;;;;;;;5084319;28;20030;-77
2022/08/24 07:53:41;;;;;;;9.30;3.20;;;;;;;;;;5086841;28;20904;-77
2022/08/24 07:56:07;;;;;;;5.97;3.22;;;;;;;;;;5084699;28;20036;-77
2022/08/24 07:58:34;;;;;;;5.68;2.80;;;;;;;;;;5077493;28;20036;-77
2022/08/24 08:01:00;;;;;;;7.53;3.75;;;;;;;;;;5087931;28;20048;-77
2022/08/24 08:03:28;;;;;;;7.53;3.47;;;;;;;;;;5085284;28;20051;-77
2022/08/24 08:05:57;;;;;;;8.57;3.45;;;;;;;;;;5077772;28;20039;-77
2022/08/24 08:08:24;;;;;;;8.32;3.28;;;;;;;;;;5084856;28;20343;-77
2022/08/24 08:10:50;;;;;;;7.97;3.25;;;;;;;;;;5080030;28;20851;-77
2022/08/24 08:13:16;;;;;;;11.70;3.05;;;;;;;;;;5084308;28;20020;-77
2022/08/24 08:15:42;;;;;;;8.75;3.63;;;;;;;;;;5082509;28;20036;-77
2022/08/24 08:18:08;;;;;;;7.68;3.25;;;;;;;;;;5078858;28;20024;-77
2022/08/24 08:20:36;;;;;;;9.32;3.30;;;;;;;;;;5076151;28;20028;-77
2022/08/24 08:25:51;;;;;;;10.63;3.65;;;;;;;;;;5084158;28;20106;-77
2022/08/24 08:28:18;;;;;;;11.20;3.40;;;;;;;;;;5082098;28;20075;-76
2022/08/24 08:30:44;;;;;;;10.57;3.47;;;;;;;;;;5083398;28;20589;-77
2022/08/24 08:33:11;;;;;;;7.72;3.25;;;;;;;;;;5081749;28;20089;-76
2022/08/24 08:35:37;;;;;;;11.02;3.78;;;;;;;;;;5088756;28;20976;-76
2022/08/24 08:38:03;;;;;;;9.77;4.10;;;;;;;;;;5082667;28;20119;-77
2022/08/24 08:40:54;;;;;;;11.32;3.22;;;;;;;;;;5081616;28;20029;-77
2022/08/24 08:43:41;;;;;;;6.57;3.80;;;;;;;;;;5084389;28;20046;-77
2022/08/24 08:46:07;;;;;;;8.85;3.70;;;;;;;;;;5083350;28;20100;-77
2022/08/24 08:48:39;;;;;;;6.82;3.65;;;;;;;;;;5080542;28;20498;-77
2022/08/24 08:51:24;;;;;;;7.00;3.50;;;;;;;;;;5083956;28;20040;-76
2022/08/24 08:53:50;;;;;;;7.72;3.13;;;;;;;;;;5081251;28;20028;-77
2022/08/24 08:56:22;;;;;;;13.30;3.30;;;;;;;;;;5083981;28;20080;-77
2022/08/24 08:59:02;;;;;;;9.13;3.38;;;;;;;;;;5081120;28;20032;-76
2022/08/24 09:01:35;;;;;;;6.82;2.90;;;;;;;;;;5077805;28;20036;-77
2022/08/24 09:04:14;;;;;;;9.43;3.20;;;;;;;;;;5080928;28;20036;-77
2022/08/24 09:06:43;;;;;;;7.88;3.00;;;;;;;;;;5083663;28;20112;-77
2022/08/24 09:09:27;;;;;;;8.65;2.92;;;;;;;;;;5082204;28;20895;-77
2022/08/24 09:12:08;;;;;;;6.28;2.70;;;;;;;;;;5079144;28;20033;-77
2022/08/24 09:14:34;;;;;;;4.85;2.72;;;;;;;;;;5088264;28;20024;-77
2022/08/24 09:17:18;;;;;;;10.95;2.78;;;;;;;;;;5083303;28;20040;-77
2022/08/24 09:19:57;;;;;;;9.23;3.28;;;;;;;;;;5082623;28;20746;-77
2022/08/24 09:22:23;;;;;;;5.82;3.08;;;;;;;;;;5084749;28;20135;-77
2022/08/24 09:24:52;;;;;;;7.57;2.80;;;;;;;;;;5084511;28;20153;-76
2022/08/24 09:27:33;;;;;;;6.25;2.42;;;;;;;;;;5079122;28;20132;-77
2022/08/24 09:29:59;;;;;;;8.32;2.83;;;;;;;;;;5084274;28;20473;-77
2022/08/24 09:32:44;;;;;;;7.70;2.92;;;;;;;;;;5084164;28;20131;-77
2022/08/24 09:35:13;;;;;;;7.88;3.13;;;;;;;;;;5083109;28;20362;-77
2022/08/24 09:37:54;;;;;;;8.85;2.90;;;;;;;;;;5078676;28;20039;-77
2022/08/24 09:40:33;;;;;;;9.02;3.22;;;;;;;;;;5081180;28;20058;-77
2022/08/24 09:42:59;;;;;;;8.45;3.22;;;;;;;;;;5081837;28;20043;-77
2022/08/24 09:45:36;;;;;;;6.13;2.55;;;;;;;;;;5077938;28;20043;-77
2022/08/24 09:48:02;;;;;;;7.65;2.90;;;;;;;;;;5083414;28;20037;-77
2022/08/24 09:50:46;;;;;;;7.30;2.80;;;;;;;;;;5083674;28;20028;-77
2022/08/24 09:53:24;;;;;;;5.97;2.65;;;;;;;;;;5082350;28;20036;-77
2022/08/24 09:56:00;;;;;;;10.63;2.80;;;;;;;;;;5082592;28;20050;-77
2022/08/24 09:58:44;;;;;;;9.48;2.45;;;;;;;;;;5074020;28;20055;-77
2022/08/24 10:01:22;;;;;;;5.40;2.58;;;;;;;;;;5083231;28;20056;-77
2022/08/24 10:03:48;;;;;;;6.28;2.58;;;;;;;;;;5076568;28;20032;-77
2022/08/24 10:06:17;;;;;;;6.65;2.78;;;;;;;;;;5080855;28;20763;-77
2022/08/24 10:09:03;;;;;;;4.78;2.58;;;;;;;;;;5079057;28;20492;-77
2022/08/24 10:11:48;;;;;;;6.90;2.70;;;;;;;;;;5080346;28;20028;-77
2022/08/24 10:14:23;;;;;;;5.25;2.25;;;;;;;;;;5080032;28;20020;-77
2022/08/24 10:17:05;;;;;;;6.20;1.92;;;;;;;;;;5087175;28;20105;-77
2022/08/24 10:19:47;;;;;;;9.40;2.17;;;;;;;;;;5083914;28;20119;-77
2022/08/24 10:22:13;;;;;;;8.02;2.55;;;;;;;;;;5079129;28;20044;-77
2022/08/24 10:24:54;;;;;;;5.88;2.40;;;;;;;;;;5084908;28;20468;-77
2022/08/24 10:27:33;;;;;;;4.80;2.60;;;;;;;;;;5078855;28;20473;-77
2022/08/24 10:30:18;;;;;;;5.60;1.90;;;;;;;;;;5077198;28;20405;-77
2022/08/24 10:32:46;;;;;;;7.60;1.92;;;;;;;;;;5078568;28;20068;-77
2022/08/24 10:35:19;;;;;;;6.15;1.85;;;;;;;;;;5080268;28;20462;-77
2022/08/24 10:37:48;;;;;;;3.97;1.90;;;;;;;;;;5081356;28;20836;-77
2022/08/24 10:40:14;;;;;;;4.25;2.15;;;;;;;;;;5082150;28;20134;-77
2022/08/24 10:45:42;;;;;;;7.05;2.35;;;;;;;;;;5080060;28;20055;-77
2022/08/24 10:48:28;;;;;;;4.40;1.75;;;;;;;;;;5080520;28;20114;-78
2022/08/24 10:51:09;;;;;;;8.38;2.03;;;;;;;;;;5078686;28;20359;-77
2022/08/24 10:53:36;;;;;;;6.53;2.20;;;;;;;;;;5076633;28;20496;-77
2022/08/24 10:56:07;;;;;;;6.82;1.92;;;;;;;;;;5079235;28;20387;-77
2022/08/24 10:58:33;;;;;;;4.97;2.28;;;;;;;;;;5082599;28;20491;-77
2022/08/24 11:01:18;;;;;;;4.95;1.85;;;;;;;;;;5082165;28;20048;-77
2022/08/24 11:03:53;;;;;;;7.05;2.30;;;;;;;;;;5079810;28;20060;-77
2022/08/24 11:06:19;;;;;;;6.45;2.13;;;;;;;;;;5074112;28;20044;-77
2022/08/24 11:09:18;;;;;;;4.97;2.10;;;;;;;;;;5076740;28;20708;-77
2022/08/24 11:11:45;;;;;;;6.95;2.17;;;;;;;;;;5030823;28;20059;-77
2022/08/24 11:14:26;;;;;;;5.22;1.92;;;;;;;;;;5078868;28;20030;-77
2022/08/24 11:16:52;;;;;;;4.25;1.80;;;;;;;;;;5081324;28;20454;-77
2022/08/24 11:19:27;;;;;;;12.00;2.08;;;;;;;;;;5081645;28;20099;-77
2022/08/24 11:22:00;;;;;;;7.20;2.00;;;;;;;;;;5080127;28;20623;-77
2022/08/24 11:24:38;;;;;;;4.90;1.70;;;;;;;;;;5077871;28;20060;-78
2022/08/24 11:27:04;;;;;;;6.65;2.15;;;;;;;;;;5079797;28;20077;-77
2022/08/24 11:29:48;;;;;;;4.32;1.77;;;;;;;;;;5080170;28;20020;-77
2022/08/24 11:32:29;;;;;;;4.43;1.80;;;;;;;;;;5080214;28;20963;-77
2022/08/24 11:34:55;;;;;;;3.95;1.70;;;;;;;;;;5077899;28;20028;-78
2022/08/24 11:37:30;;;;;;;6.93;1.88;;;;;;;;;;5073065;28;20040;-77
2022/08/24 11:39:56;;;;;;;4.32;1.88;;;;;;;;;;5080474;28;20453;-77
2022/08/24 11:42:45;;;;;;;6.22;1.95;;;;;;;;;;5074118;28;20079;-77
2022/08/24 11:45:14;;;;;;;7.90;2.25;;;;;;;;;;5074475;28;20070;-77
2022/08/24 11:47:56;;;;;;;7.07;1.52;;;;;;;;;;5080109;28;20032;-77
2022/08/24 11:50:25;;;;;;;6.47;2.67;;;;;;;;;;5084770;28;20032;-77
2022/08/24 11:52:54;;;;;;;5.15;1.52;;;;;;;;;;5078076;28;20032;-77
2022/08/24 11:55:39;;;;;;;5.43;1.60;;;;;;;;;;5079810;28;20036;-77
2022/08/24 11:58:10;;;;;;;5.38;1.90;;;;;;;;;;5082451;28;20829;-77
2022/08/24 12:00:43;;;;;;;6.63;1.87;;;;;;;;;;5072185;28;20601;-77
2022/08/24 12:03:19;;;;;;;6.45;1.90;;;;;;;;;;5080808;28;20274;-77
2022/08/24 12:06:08;;;;;;;3.25;1.80;;;;;;;;;;5078280;28;20043;-77
2022/08/24 12:08:34;;;;;;;10.07;2.10;;;;;;;;;;5079318;28;20468;-77
2022/08/24 12:11:03;;;;;;;5.18;1.70;;;;;;;;;;5079885;28;20042;-77
2022/08/24 12:13:32;;;;;;;6.63;1.90;;;;;;;;;;5074285;28;20043;-77
2022/08/24 12:15:58;;;;;;;4.35;1.60;;;;;;;;;;5079381;28;20029;-77
2022/08/24 12:18:31;;;;;;;4.47;1.90;;;;;;;;;;5076945;28;20140;-77
2022/08/24 12:20:57;;;;;;;4.03;1.98;;;;;;;;;;5077488;28;20032;-77
2022/08/24 12:23:27;;;;;;;9.60;2.08;;;;;;;;;;5080426;28;20055;-77
2022/08/24 12:26:03;;;;;;;7.30;2.10;;;;;;;;;;5071942;28;20039;-77
2022/08/24 12:28:31;;;;;;;5.95;2.10;;;;;;;;;;5077043;28;20031;-77
2022/08/24 12:31:01;;;;;;;6.55;2.20;;;;;;;;;;5082378;28;20032;-77
2022/08/24 12:33:30;;;;;;;6.07;1.77;;;;;;;;;;5084016;28;20094;-77
2022/08/24 12:35:59;;;;;;;5.78;1.98;;;;;;;;;;5083374;28;20611;-77
2022/08/24 12:38:28;;;;;;;7.00;1.75;;;;;;;;;;5076769;28;20032;-77
2022/08/24 12:40:54;;;;;;;4.25;1.80;;;;;;;;;;5080840;28;20038;-77
2022/08/24 12:43:26;;;;;;;4.10;1.70;;;;;;;;;;5081792;28;20024;-77
2022/08/24 12:45:54;;;;;;;9.65;2.05;;;;;;;;;;5087506;28;20040;-77
2022/08/24 12:48:23;;;;;;;4.65;1.85;;;;;;;;;;5085035;28;20099;-77
2022/08/24 12:50:49;;;;;;;3.88;1.67;;;;;;;;;;5080011;28;20410;-77
2022/08/24 12:53:27;;;;;;;6.72;2.25;;;;;;;;;;5084132;28;20028;-77
2022/08/24 12:55:56;;;;;;;6.43;1.60;;;;;;;;;;5080154;28;20495;-77
2022/08/24 12:58:42;;;;;;;3.47;1.67;;;;;;;;;;5081711;28;20489;-77
2022/08/24 13:01:10;;;;;;;5.55;2.08;;;;;;;;;;5085745;28;20055;-77
2022/08/24 13:03:41;;;;;;;10.25;2.60;;;;;;;;;;5082636;28;20037;-77
2022/08/24 13:06:10;;;;;;;5.38;1.98;;;;;;;;;;5084618;28;20036;-77
2022/08/24 13:08:38;;;;;;;7.60;1.90;;;;;;;;;;5079083;28;20044;-77
2022/08/24 13:11:07;;;;;;;3.85;1.80;;;;;;;;;;5076062;28;20028;-77
2022/08/24 13:13:48;;;;;;;5.93;1.92;;;;;;;;;;5081739;28;20024;-77
2022/08/24 13:16:32;;;;;;;5.18;1.92;;;;;;;;;;5082158;28;20450;-77
2022/08/24 13:19:13;;;;;;;5.40;2.00;;;;;;;;;;5075693;28;20044;-77
2022/08/24 13:21:41;;;;;;;4.00;1.92;;;;;;;;;;5077423;28;20832;-77
2022/08/24 13:24:28;;;;;;;4.38;1.85;;;;;;;;;;5078602;28;20040;-77
2022/08/24 13:27:13;;;;;;;5.38;1.95;;;;;;;;;;5064593;28;20048;-77
2022/08/24 13:29:44;;;;;;;10.73;1.80;;;;;;;;;;5084399;28;20040;-77
2022/08/24 13:32:20;;;;;;;5.03;2.30;;;;;;;;;;5080565;28;20028;-77
2022/08/24 13:34:47;;;;;;;5.38;2.00;;;;;;;;;;5085303;28;20036;-77
2022/08/24 13:37:21;;;;;;;5.65;1.98;;;;;;;;;;5078074;28;20048;-77
2022/08/24 13:39:49;;;;;;;6.70;1.90;;;;;;;;;;5079165;28;20556;-77
2022/08/24 13:42:19;;;;;;;5.55;1.70;;;;;;;;;;5083791;28;20438;-77
2022/08/24 13:45:04;;;;;;;5.30;1.95;;;;;;;;;;5079927;28;20115;-77
2022/08/24 13:47:46;;;;;;;3.80;1.73;;;;;;;;;;5080817;28;20109;-77
2022/08/24 13:50:33;;;;;;;5.47;1.92;;;;;;;;;;5079744;28;20063;-77
2022/08/24 13:53:11;;;;;;;8.07;1.80;;;;;;;;;;5043417;28;20085;-77
2022/08/24 13:55:57;;;;;;;7.60;2.35;;;;;;;;;;5081801;28;20036;-77
2022/08/24 13:58:23;;;;;;;4.57;1.77;;;;;;;;;;5033156;28;20060;-77
2022/08/24 14:01:12;;;;;;;6.25;1.70;;;;;;;;;;5080081;28;20048;-77
2022/08/24 14:03:49;;;;;;;4.82;1.60;;;;;;;;;;5051634;28;20077;-77
2022/08/24 14:06:15;;;;;;;7.55;1.77;;;;;;;;;;5082492;28;20068;-77
2022/08/24 14:08:49;;;;;;;3.10;1.77;;;;;;;;;;5072706;28;20060;-77
2022/08/24 14:11:18;;;;;;;5.93;1.60;;;;;;;;;;5076012;28;20389;-77
2022/08/24 14:13:46;;;;;;;3.40;1.48;;;;;;;;;;5084825;28;20594;-77
2022/08/24 14:19:16;;;;;;;6.40;1.83;;;;;;;;;;5079831;28;20031;-77
2022/08/24 14:21:48;;;;;;;5.80;1.73;;;;;;;;;;5077840;28;20036;-77
2022/08/24 14:24:31;;;;;;;6.20;1.60;;;;;;;;;;5077136;28;20362;-77
2022/08/24 14:27:01;;;;;;;5.22;1.75;;;;;;;;;;5072115;28;20433;-77
2022/08/24 14:29:35;;;;;;;7.00;1.75;;;;;;;;;;5055697;28;20639;-77
2022/08/24 14:32:01;;;;;;;3.97;1.75;;;;;;;;;;5078147;28;20724;-77
2022/08/24 14:34:47;;;;;;;6.53;1.58;;;;;;;;;;5080876;28;20603;-77
2022/08/24 14:37:13;;;;;;;8.73;1.65;;;;;;;;;;5080965;28;20111;-77
2022/08/24 14:39:46;;;;;;;2.78;1.42;;;;;;;;;;5077146;28;20118;-77
2022/08/24 14:42:21;;;;;;;3.05;1.60;;;;;;;;;;5079799;28;20426;-77
2022/08/24 14:45:09;;;;;;;3.75;1.55;;;;;;;;;;5076736;28;20028;-77
2022/08/24 14:47:44;;;;;;;6.55;1.48;;;;;;;;;;5079152;28;20456;-77
2022/08/24 14:50:10;;;;;;;4.13;1.65;;;;;;;;;;5078828;28;20401;-77
2022/08/24 14:52:36;;;;;;;5.25;1.75;;;;;;;;;;5071634;28;20063;-77
2022/08/24 14:55:26;;;;;;;6.38;1.60;;;;;;;;;;5056306;28;20028;-77
2022/08/24 14:58:01;;;;;;;6.82;1.58;;;;;;;;;;5072459;28;20059;-77
2022/08/24 15:00:45;;;;;;;4.65;1.40;;;;;;;;;;5075160;28;20044;-77
2022/08/24 15:03:17;;;;;;;3.72;1.70;;;;;;;;;;5074213;28;20121;-77
2022/08/24 15:05:44;;;;;;;3.35;1.35;;;;;;;;;;5075024;28;20170;-77
2022/08/24 15:08:27;;;;;;;6.28;1.70;;;;;;;;;;5077226;28;20103;-77
2022/08/24 15:10:59;;;;;;;6.63;1.38;;;;;;;;;;5079120;28;20044;-77